RYR89F EDDH-ESGG
Flight info
| Callsign | RYR89F |
|---|---|
| Flight time | 0h 54m |
| Altitude | 35000 |
| Route | SOKWO1G/33 SOKWO T814 EXNEL M105 AMRAK DCT GOTEX N873 LOBBI |
| Aircraft | B738/M-SDE2E3FGHIRWXY/LB1 |
Departure
| Time | 2026-04-26 18:06 |
|---|---|
| Airport | Hamburg Helmut Schmidt Airport (EDDH) |
Arrival
| Time | 2026-04-26 19:00 |
|---|---|
| Airport | Göteborg Landvetter Airport (ESGG) |
| Time | Latitude | Longitude | Altitude | Speed | Heading |
|---|---|---|---|---|---|
| 2026-04-26 17:21 | 53.62773 | 10.00273 | 48 ft | 0 kts | 63° |
| 2026-04-26 17:55 | 53.62772 | 10.00270 | 47 ft | 3 kts | 64° |
| 2026-04-26 17:55 | 53.62762 | 10.00230 | 45 ft | 4 kts | 70° |
| 2026-04-26 17:55 | 53.62755 | 10.00187 | 47 ft | 4 kts | 88° |
| 2026-04-26 17:56 | 53.62759 | 10.00148 | 46 ft | 4 kts | 137° |
| 2026-04-26 17:56 | 53.62765 | 10.00141 | 44 ft | 1 kts | 153° |
| 2026-04-26 17:59 | 53.62756 | 10.00148 | 46 ft | 3 kts | 153° |
| 2026-04-26 17:59 | 53.62723 | 10.00176 | 47 ft | 6 kts | 153° |
| 2026-04-26 18:00 | 53.62687 | 10.00208 | 46 ft | 6 kts | 153° |
| 2026-04-26 18:00 | 53.62645 | 10.00243 | 47 ft | 7 kts | 153° |
| 2026-04-26 18:00 | 53.62598 | 10.00258 | 47 ft | 6 kts | 199° |
| 2026-04-26 18:00 | 53.62572 | 10.00211 | 47 ft | 6 kts | 239° |
| 2026-04-26 18:01 | 53.62567 | 10.00196 | 46 ft | 0 kts | 241° |
| 2026-04-26 18:03 | 53.62562 | 10.00179 | 46 ft | 4 kts | 242° |
| 2026-04-26 18:04 | 53.62544 | 10.00114 | 45 ft | 7 kts | 251° |
| 2026-04-26 18:04 | 53.62550 | 10.00036 | 46 ft | 7 kts | 302° |
| 2026-04-26 18:04 | 53.62583 | 9.99992 | 46 ft | 1 kts | 330° |
| 2026-04-26 18:05 | 53.62587 | 9.99988 | 46 ft | 3 kts | 330° |
| 2026-04-26 18:05 | 53.62754 | 9.99843 | 45 ft | 62 kts | 333° |
| 2026-04-26 18:05 | 53.63354 | 9.99325 | 46 ft | 129 kts | 333° |
| 2026-04-26 18:06 | 53.64300 | 9.98494 | 214 ft | 168 kts | 331° |
| 2026-04-26 18:06 | 53.65321 | 9.97607 | 1048 ft | 169 kts | 332° |
| 2026-04-26 18:06 | 53.66386 | 9.96696 | 1833 ft | 174 kts | 332° |
| 2026-04-26 18:06 | 53.67523 | 9.95721 | 2350 ft | 196 kts | 332° |
| 2026-04-26 18:07 | 53.68810 | 9.94750 | 2851 ft | 210 kts | 345° |
| 2026-04-26 18:07 | 53.70302 | 9.94639 | 3433 ft | 220 kts | 359° |
| 2026-04-26 18:07 | 53.71859 | 9.94676 | 4037 ft | 227 kts | 358° |
| 2026-04-26 18:07 | 53.72912 | 9.94703 | 4521 ft | 229 kts | 3° |
| 2026-04-26 18:08 | 53.74971 | 9.96141 | 5076 ft | 261 kts | 31° |
| 2026-04-26 18:08 | 53.76523 | 9.97870 | 5735 ft | 270 kts | 31° |
| 2026-04-26 18:08 | 53.78077 | 9.99612 | 6644 ft | 272 kts | 31° |
| 2026-04-26 18:08 | 53.79654 | 10.01373 | 7540 ft | 272 kts | 30° |
| 2026-04-26 18:09 | 53.81243 | 10.03132 | 8403 ft | 274 kts | 30° |
| 2026-04-26 18:09 | 53.82842 | 10.04892 | 9276 ft | 275 kts | 29° |
| 2026-04-26 18:09 | 53.84457 | 10.06665 | 9963 ft | 277 kts | 29° |
| 2026-04-26 18:09 | 53.86080 | 10.08446 | 10275 ft | 280 kts | 29° |
| 2026-04-26 18:10 | 53.87720 | 10.10243 | 10274 ft | 280 kts | 28° |
| 2026-04-26 18:10 | 53.89497 | 10.11416 | 10295 ft | 272 kts | 5° |
| 2026-04-26 18:10 | 53.91363 | 10.11328 | 10299 ft | 270 kts | 346° |
| 2026-04-26 18:10 | 53.93232 | 10.10562 | 10425 ft | 287 kts | 344° |
| 2026-04-26 18:11 | 53.95247 | 10.09680 | 10616 ft | 311 kts | 344° |
| 2026-04-26 18:11 | 53.97412 | 10.08736 | 10920 ft | 329 kts | 344° |
| 2026-04-26 18:11 | 53.99654 | 10.07775 | 11543 ft | 335 kts | 345° |
| 2026-04-26 18:11 | 54.01899 | 10.06821 | 12289 ft | 338 kts | 345° |
| 2026-04-26 18:12 | 54.04189 | 10.05851 | 13076 ft | 340 kts | 345° |
| 2026-04-26 18:12 | 54.06499 | 10.04881 | 13807 ft | 344 kts | 345° |
| 2026-04-26 18:12 | 54.08836 | 10.03906 | 14484 ft | 348 kts | 344° |
| 2026-04-26 18:12 | 54.11096 | 10.02431 | 15114 ft | 350 kts | 329° |
| 2026-04-26 18:13 | 54.12995 | 9.99845 | 15793 ft | 351 kts | 314° |
| 2026-04-26 18:13 | 54.14650 | 9.96755 | 16457 ft | 355 kts | 311° |
| 2026-04-26 18:13 | 54.16295 | 9.93593 | 17077 ft | 358 kts | 315° |
| 2026-04-26 18:13 | 54.17572 | 9.91795 | 17469 ft | 362 kts | 326° |
| 2026-04-26 18:14 | 54.20669 | 9.89470 | 18335 ft | 369 kts | 343° |
| 2026-04-26 18:14 | 54.23179 | 9.88716 | 18889 ft | 374 kts | 349° |
| 2026-04-26 18:14 | 54.25776 | 9.88143 | 19427 ft | 378 kts | 350° |
| 2026-04-26 18:14 | 54.28394 | 9.87585 | 19969 ft | 381 kts | 350° |
| 2026-04-26 18:15 | 54.31029 | 9.87017 | 20510 ft | 383 kts | 349° |
| 2026-04-26 18:15 | 54.33685 | 9.86432 | 21046 ft | 386 kts | 349° |
| 2026-04-26 18:15 | 54.36354 | 9.85831 | 21571 ft | 389 kts | 349° |
| 2026-04-26 18:15 | 54.39044 | 9.85217 | 22081 ft | 391 kts | 349° |
| 2026-04-26 18:16 | 54.41753 | 9.84592 | 22584 ft | 394 kts | 349° |
| 2026-04-26 18:16 | 54.47225 | 9.83321 | 23577 ft | 400 kts | 349° |
| 2026-04-26 18:16 | 54.49952 | 9.82686 | 24019 ft | 402 kts | 349° |
| 2026-04-26 18:17 | 54.52735 | 9.82037 | 24415 ft | 405 kts | 349° |
| 2026-04-26 18:17 | 54.55531 | 9.81384 | 24816 ft | 407 kts | 349° |
| 2026-04-26 18:17 | 54.58345 | 9.80726 | 25215 ft | 409 kts | 349° |
| 2026-04-26 18:17 | 54.61175 | 9.80064 | 25598 ft | 411 kts | 349° |
| 2026-04-26 18:18 | 54.64014 | 9.79398 | 25975 ft | 413 kts | 349° |
| 2026-04-26 18:18 | 54.66873 | 9.78727 | 26349 ft | 416 kts | 349° |
| 2026-04-26 18:18 | 54.69745 | 9.78052 | 26715 ft | 418 kts | 348° |
| 2026-04-26 18:18 | 54.72635 | 9.77372 | 27066 ft | 420 kts | 348° |
| 2026-04-26 18:19 | 54.75533 | 9.76689 | 27427 ft | 422 kts | 348° |
| 2026-04-26 18:19 | 54.78414 | 9.76015 | 27744 ft | 424 kts | 350° |
| 2026-04-26 18:19 | 54.81383 | 9.75836 | 28059 ft | 431 kts | 359° |
| 2026-04-26 18:19 | 54.84387 | 9.76414 | 28385 ft | 438 kts | 6° |
| 2026-04-26 18:20 | 54.87357 | 9.77776 | 28697 ft | 445 kts | 13° |
| 2026-04-26 18:20 | 54.90293 | 9.79520 | 29005 ft | 447 kts | 14° |
| 2026-04-26 18:20 | 54.93234 | 9.81340 | 29299 ft | 450 kts | 15° |
| 2026-04-26 18:20 | 54.95183 | 9.82559 | 29510 ft | 451 kts | 15° |
| 2026-04-26 18:21 | 54.99125 | 9.85017 | 30111 ft | 448 kts | 15° |
| 2026-04-26 18:21 | 55.02059 | 9.86831 | 30563 ft | 446 kts | 14° |
| 2026-04-26 18:21 | 55.04983 | 9.88626 | 30921 ft | 445 kts | 14° |
| 2026-04-26 18:21 | 55.07865 | 9.90385 | 31231 ft | 445 kts | 14° |
| 2026-04-26 18:22 | 55.10785 | 9.92162 | 31557 ft | 444 kts | 14° |
| 2026-04-26 18:22 | 55.13698 | 9.93934 | 31923 ft | 443 kts | 14° |
| 2026-04-26 18:22 | 55.16608 | 9.95707 | 32264 ft | 442 kts | 14° |
| 2026-04-26 18:22 | 55.19509 | 9.97476 | 32578 ft | 442 kts | 14° |
| 2026-04-26 18:23 | 55.22408 | 9.99247 | 32890 ft | 441 kts | 14° |
| 2026-04-26 18:23 | 55.25303 | 10.01019 | 33221 ft | 440 kts | 14° |
| 2026-04-26 18:23 | 55.28189 | 10.02788 | 33548 ft | 439 kts | 14° |
| 2026-04-26 18:23 | 55.31075 | 10.04560 | 33851 ft | 439 kts | 14° |
| 2026-04-26 18:24 | 55.33953 | 10.06331 | 34158 ft | 438 kts | 14° |
| 2026-04-26 18:24 | 55.36830 | 10.08103 | 34436 ft | 438 kts | 14° |
| 2026-04-26 18:24 | 55.39666 | 10.09853 | 34683 ft | 437 kts | 14° |
| 2026-04-26 18:24 | 55.42531 | 10.11624 | 34932 ft | 437 kts | 14° |
| 2026-04-26 18:25 | 55.45397 | 10.13398 | 35181 ft | 436 kts | 14° |
| 2026-04-26 18:25 | 55.48265 | 10.15175 | 35259 ft | 439 kts | 14° |
| 2026-04-26 18:25 | 55.54052 | 10.18767 | 35264 ft | 441 kts | 14° |
| 2026-04-26 18:26 | 55.59795 | 10.22352 | 35258 ft | 434 kts | 14° |
| 2026-04-26 18:26 | 55.65473 | 10.25905 | 35271 ft | 433 kts | 14° |
| 2026-04-26 18:27 | 55.71111 | 10.29438 | 35271 ft | 432 kts | 14° |
| 2026-04-26 18:27 | 55.76779 | 10.33003 | 35272 ft | 432 kts | 14° |
| 2026-04-26 18:28 | 55.82453 | 10.36582 | 35268 ft | 433 kts | 14° |
| 2026-04-26 18:28 | 55.88127 | 10.40173 | 35262 ft | 433 kts | 14° |
| 2026-04-26 18:29 | 55.93816 | 10.43785 | 35264 ft | 434 kts | 14° |
| 2026-04-26 18:29 | 55.99512 | 10.47413 | 35264 ft | 435 kts | 14° |
| 2026-04-26 18:30 | 56.05182 | 10.51036 | 35265 ft | 436 kts | 14° |
| 2026-04-26 18:30 | 56.10890 | 10.54695 | 35272 ft | 436 kts | 14° |
| 2026-04-26 18:31 | 56.13760 | 10.56538 | 35043 ft | 440 kts | 14° |
| 2026-04-26 18:31 | 56.16634 | 10.58387 | 34525 ft | 437 kts | 14° |
| 2026-04-26 18:31 | 56.19487 | 10.60228 | 33899 ft | 436 kts | 14° |
| 2026-04-26 18:31 | 56.22332 | 10.62067 | 33379 ft | 433 kts | 14° |
| 2026-04-26 18:32 | 56.25147 | 10.63890 | 32950 ft | 428 kts | 14° |
| 2026-04-26 18:32 | 56.27932 | 10.65697 | 32511 ft | 423 kts | 14° |
| 2026-04-26 18:32 | 56.30692 | 10.67489 | 32013 ft | 421 kts | 14° |
| 2026-04-26 18:32 | 56.33404 | 10.69249 | 31489 ft | 419 kts | 14° |
| 2026-04-26 18:33 | 56.36144 | 10.71030 | 30979 ft | 418 kts | 14° |
| 2026-04-26 18:33 | 56.38872 | 10.72806 | 30461 ft | 416 kts | 14° |
| 2026-04-26 18:33 | 56.41592 | 10.74580 | 29880 ft | 415 kts | 14° |
| 2026-04-26 18:33 | 56.44294 | 10.76346 | 29370 ft | 411 kts | 14° |
| 2026-04-26 18:34 | 56.46961 | 10.78095 | 28917 ft | 406 kts | 14° |
| 2026-04-26 18:34 | 56.49601 | 10.79827 | 28463 ft | 401 kts | 14° |
| 2026-04-26 18:34 | 56.52214 | 10.81544 | 28013 ft | 397 kts | 14° |
| 2026-04-26 18:34 | 56.54798 | 10.83243 | 27572 ft | 393 kts | 14° |
| 2026-04-26 18:35 | 56.57354 | 10.84926 | 27131 ft | 389 kts | 14° |
| 2026-04-26 18:35 | 56.59889 | 10.86597 | 26701 ft | 386 kts | 14° |
| 2026-04-26 18:35 | 56.62365 | 10.88231 | 26274 ft | 382 kts | 14° |
| 2026-04-26 18:35 | 56.64852 | 10.89875 | 25861 ft | 379 kts | 14° |
| 2026-04-26 18:36 | 56.67322 | 10.91510 | 25448 ft | 376 kts | 14° |
| 2026-04-26 18:36 | 56.69770 | 10.93132 | 25029 ft | 373 kts | 14° |
| 2026-04-26 18:36 | 56.72201 | 10.94746 | 24615 ft | 371 kts | 14° |
| 2026-04-26 18:36 | 56.74619 | 10.96353 | 24202 ft | 369 kts | 14° |
| 2026-04-26 18:37 | 56.77023 | 10.97952 | 23764 ft | 367 kts | 14° |
| 2026-04-26 18:37 | 56.79414 | 10.99545 | 23291 ft | 365 kts | 14° |
| 2026-04-26 18:37 | 56.81786 | 11.01129 | 22846 ft | 361 kts | 14° |
| 2026-04-26 18:37 | 56.84136 | 11.02701 | 22426 ft | 358 kts | 14° |
| 2026-04-26 18:38 | 56.86466 | 11.04261 | 22014 ft | 355 kts | 14° |
| 2026-04-26 18:38 | 56.88742 | 11.05787 | 21615 ft | 352 kts | 14° |
| 2026-04-26 18:38 | 56.91034 | 11.07324 | 21216 ft | 349 kts | 14° |
| 2026-04-26 18:38 | 56.93306 | 11.08851 | 20821 ft | 346 kts | 14° |
| 2026-04-26 18:39 | 56.95561 | 11.10368 | 20428 ft | 344 kts | 14° |
| 2026-04-26 18:39 | 56.97799 | 11.11885 | 20028 ft | 343 kts | 15° |
| 2026-04-26 18:39 | 56.99952 | 11.13870 | 19523 ft | 350 kts | 24° |
| 2026-04-26 18:39 | 57.02032 | 11.16187 | 19098 ft | 350 kts | 25° |
| 2026-04-26 18:40 | 57.04093 | 11.18546 | 18704 ft | 348 kts | 26° |
| 2026-04-26 18:40 | 57.06143 | 11.20893 | 18268 ft | 346 kts | 26° |
| 2026-04-26 18:40 | 57.08184 | 11.23212 | 17841 ft | 344 kts | 25° |
| 2026-04-26 18:40 | 57.10211 | 11.25501 | 17428 ft | 341 kts | 25° |
| 2026-04-26 18:41 | 57.12203 | 11.27742 | 17043 ft | 338 kts | 25° |
| 2026-04-26 18:41 | 57.14201 | 11.29984 | 16657 ft | 335 kts | 25° |
| 2026-04-26 18:41 | 57.16185 | 11.32209 | 16278 ft | 333 kts | 25° |
| 2026-04-26 18:41 | 57.18156 | 11.34420 | 15901 ft | 330 kts | 25° |
| 2026-04-26 18:42 | 57.20111 | 11.36616 | 15528 ft | 328 kts | 25° |
| 2026-04-26 18:42 | 57.22051 | 11.38796 | 15160 ft | 326 kts | 25° |
| 2026-04-26 18:42 | 57.23979 | 11.40966 | 14787 ft | 324 kts | 25° |
| 2026-04-26 18:42 | 57.25897 | 11.43127 | 14420 ft | 322 kts | 25° |
| 2026-04-26 18:43 | 57.27804 | 11.45278 | 14051 ft | 320 kts | 26° |
| 2026-04-26 18:43 | 57.29673 | 11.47390 | 13646 ft | 319 kts | 26° |
| 2026-04-26 18:43 | 57.31552 | 11.49545 | 13257 ft | 318 kts | 29° |
| 2026-04-26 18:43 | 57.33192 | 11.52312 | 12989 ft | 319 kts | 41° |
| 2026-04-26 18:44 | 57.34687 | 11.55333 | 12720 ft | 318 kts | 42° |
| 2026-04-26 18:44 | 57.36168 | 11.58375 | 12456 ft | 317 kts | 43° |
| 2026-04-26 18:44 | 57.37647 | 11.61406 | 12189 ft | 317 kts | 42° |
| 2026-04-26 18:44 | 57.39125 | 11.64418 | 11925 ft | 316 kts | 42° |
| 2026-04-26 18:45 | 57.40606 | 11.67425 | 11656 ft | 315 kts | 42° |
| 2026-04-26 18:45 | 57.42083 | 11.70414 | 11396 ft | 314 kts | 42° |
| 2026-04-26 18:45 | 57.43558 | 11.73398 | 11136 ft | 313 kts | 42° |
| 2026-04-26 18:45 | 57.45022 | 11.76360 | 10882 ft | 309 kts | 42° |
| 2026-04-26 18:46 | 57.46444 | 11.79239 | 10617 ft | 304 kts | 42° |
| 2026-04-26 18:46 | 57.47803 | 11.81994 | 10386 ft | 300 kts | 42° |
| 2026-04-26 18:46 | 57.49188 | 11.84805 | 10285 ft | 290 kts | 42° |
| 2026-04-26 18:46 | 57.50522 | 11.87513 | 10249 ft | 278 kts | 42° |
| 2026-04-26 18:47 | 57.51796 | 11.90104 | 10236 ft | 265 kts | 42° |
| 2026-04-26 18:47 | 57.53014 | 11.92585 | 10235 ft | 256 kts | 41° |
| 2026-04-26 18:47 | 57.54221 | 11.95036 | 10255 ft | 261 kts | 41° |
| 2026-04-26 18:47 | 57.55492 | 11.97534 | 10257 ft | 268 kts | 35° |
| 2026-04-26 18:48 | 57.57064 | 11.99350 | 10264 ft | 266 kts | 21° |
| 2026-04-26 18:48 | 57.58714 | 12.00888 | 10237 ft | 264 kts | 21° |
| 2026-04-26 18:48 | 57.60345 | 12.02432 | 10076 ft | 263 kts | 22° |
| 2026-04-26 18:48 | 57.61976 | 12.04003 | 9645 ft | 264 kts | 23° |
| 2026-04-26 18:49 | 57.63601 | 12.05587 | 9240 ft | 263 kts | 23° |
| 2026-04-26 18:49 | 57.65193 | 12.07144 | 8846 ft | 261 kts | 23° |
| 2026-04-26 18:49 | 57.66798 | 12.08717 | 8454 ft | 260 kts | 24° |
| 2026-04-26 18:49 | 57.68392 | 12.10280 | 8064 ft | 258 kts | 24° |
| 2026-04-26 18:50 | 57.69975 | 12.11833 | 7703 ft | 256 kts | 24° |
| 2026-04-26 18:50 | 57.71545 | 12.13376 | 7369 ft | 253 kts | 24° |
| 2026-04-26 18:50 | 57.73094 | 12.14900 | 7038 ft | 250 kts | 25° |
| 2026-04-26 18:50 | 57.74635 | 12.16416 | 6726 ft | 250 kts | 25° |
| 2026-04-26 18:51 | 57.76171 | 12.17928 | 6380 ft | 248 kts | 25° |
| 2026-04-26 18:51 | 57.77696 | 12.19432 | 6024 ft | 247 kts | 25° |
| 2026-04-26 18:51 | 57.79210 | 12.20926 | 5696 ft | 245 kts | 25° |
| 2026-04-26 18:51 | 57.80706 | 12.22405 | 5407 ft | 241 kts | 25° |
| 2026-04-26 18:52 | 57.82180 | 12.23863 | 5131 ft | 237 kts | 25° |
| 2026-04-26 18:52 | 57.83624 | 12.25292 | 4907 ft | 230 kts | 25° |
| 2026-04-26 18:52 | 57.84996 | 12.26639 | 4745 ft | 221 kts | 25° |
| 2026-04-26 18:52 | 57.86333 | 12.27948 | 4524 ft | 212 kts | 25° |
| 2026-04-26 18:53 | 57.87612 | 12.29196 | 4370 ft | 202 kts | 25° |
| 2026-04-26 18:53 | 57.88823 | 12.30379 | 4281 ft | 190 kts | 25° |
| 2026-04-26 18:53 | 57.89994 | 12.31521 | 4282 ft | 189 kts | 25° |
| 2026-04-26 18:53 | 57.91085 | 12.32950 | 4050 ft | 199 kts | 50° |
| 2026-04-26 18:54 | 57.91559 | 12.35383 | 3809 ft | 204 kts | 86° |
| 2026-04-26 18:54 | 57.91199 | 12.37956 | 3576 ft | 205 kts | 112° |
| 2026-04-26 18:54 | 57.90556 | 12.40346 | 3311 ft | 204 kts | 115° |
| 2026-04-26 18:54 | 57.89902 | 12.42705 | 3079 ft | 204 kts | 115° |
| 2026-04-26 18:55 | 57.89039 | 12.44831 | 3010 ft | 210 kts | 144° |
| 2026-04-26 18:55 | 57.87686 | 12.45740 | 3029 ft | 207 kts | 172° |
| 2026-04-26 18:55 | 57.86253 | 12.45799 | 2992 ft | 206 kts | 196° |
| 2026-04-26 18:55 | 57.84929 | 12.44845 | 3018 ft | 205 kts | 205° |
| 2026-04-26 18:56 | 57.83626 | 12.43751 | 3015 ft | 205 kts | 207° |
| 2026-04-26 18:56 | 57.82351 | 12.42613 | 3020 ft | 207 kts | 208° |
| 2026-04-26 18:56 | 57.81049 | 12.41431 | 3009 ft | 209 kts | 208° |
| 2026-04-26 18:56 | 57.79744 | 12.40241 | 3003 ft | 208 kts | 208° |
| 2026-04-26 18:57 | 57.78451 | 12.39064 | 2961 ft | 205 kts | 208° |
| 2026-04-26 18:57 | 57.77604 | 12.38293 | 2789 ft | 204 kts | 208° |
| 2026-04-26 18:57 | 57.75920 | 12.36760 | 2439 ft | 197 kts | 208° |
| 2026-04-26 18:57 | 57.74719 | 12.35668 | 2172 ft | 187 kts | 209° |
| 2026-04-26 18:58 | 57.73585 | 12.34635 | 1909 ft | 176 kts | 209° |
| 2026-04-26 18:58 | 57.72517 | 12.33662 | 1658 ft | 165 kts | 209° |
| 2026-04-26 18:58 | 57.71521 | 12.32751 | 1484 ft | 162 kts | 209° |
| 2026-04-26 18:58 | 57.70522 | 12.31843 | 1193 ft | 156 kts | 208° |
| 2026-04-26 18:59 | 57.69551 | 12.30965 | 987 ft | 155 kts | 208° |
| 2026-04-26 18:59 | 57.68579 | 12.30077 | 777 ft | 156 kts | 208° |
| 2026-04-26 18:59 | 57.67601 | 12.29188 | 565 ft | 156 kts | 208° |
| 2026-04-26 18:59 | 57.66687 | 12.28345 | 511 ft | 128 kts | 205° |
| 2026-04-26 19:00 | 57.66080 | 12.27792 | 507 ft | 66 kts | 206° |
| 2026-04-26 19:00 | 57.65724 | 12.27470 | 502 ft | 51 kts | 205° |
| 2026-04-26 19:00 | 57.65443 | 12.27217 | 491 ft | 40 kts | 206° |
| 2026-04-26 19:00 | 57.65229 | 12.27023 | 492 ft | 26 kts | 205° |
| 2026-04-26 19:01 | 57.65091 | 12.27006 | 485 ft | 18 kts | 162° |
| 2026-04-26 19:01 | 57.65014 | 12.27094 | 487 ft | 13 kts | 111° |
| 2026-04-26 19:01 | 57.65060 | 12.27215 | 491 ft | 12 kts | 25° |
| 2026-04-26 19:01 | 57.65137 | 12.27285 | 493 ft | 12 kts | 26° |
| 2026-04-26 19:02 | 57.65215 | 12.27357 | 494 ft | 14 kts | 26° |
| 2026-04-26 19:02 | 57.65315 | 12.27447 | 496 ft | 18 kts | 26° |
| 2026-04-26 19:02 | 57.65434 | 12.27554 | 497 ft | 19 kts | 26° |
| 2026-04-26 19:02 | 57.65511 | 12.27624 | 500 ft | 18 kts | 26° |
| 2026-04-26 19:03 | 57.65596 | 12.27701 | 502 ft | 2 kts | 26° |
| 2026-04-26 19:03 | 57.65597 | 12.27701 | 502 ft | 0 kts | 26° |
| 2026-04-26 19:03 | 57.65599 | 12.27704 | 502 ft | 2 kts | 26° |
| 2026-04-26 19:04 | 57.65624 | 12.27726 | 502 ft | 6 kts | 26° |
| 2026-04-26 19:04 | 57.65676 | 12.27773 | 503 ft | 11 kts | 26° |
| 2026-04-26 19:04 | 57.65754 | 12.27845 | 504 ft | 14 kts | 26° |
| 2026-04-26 19:04 | 57.65846 | 12.27928 | 506 ft | 14 kts | 26° |
| 2026-04-26 19:05 | 57.66017 | 12.28085 | 507 ft | 13 kts | 26° |
| 2026-04-26 19:05 | 57.66107 | 12.28166 | 508 ft | 16 kts | 26° |
| 2026-04-26 19:05 | 57.66210 | 12.28261 | 509 ft | 17 kts | 26° |
| 2026-04-26 19:06 | 57.66311 | 12.28352 | 510 ft | 16 kts | 26° |
| 2026-04-26 19:06 | 57.66408 | 12.28441 | 510 ft | 15 kts | 26° |
| 2026-04-26 19:06 | 57.66502 | 12.28527 | 511 ft | 15 kts | 26° |
| 2026-04-26 19:06 | 57.66592 | 12.28609 | 511 ft | 14 kts | 26° |
| 2026-04-26 19:07 | 57.66678 | 12.28687 | 511 ft | 13 kts | 26° |
| 2026-04-26 19:07 | 57.66760 | 12.28761 | 512 ft | 13 kts | 26° |
| 2026-04-26 19:07 | 57.66835 | 12.28837 | 512 ft | 12 kts | 26° |
| 2026-04-26 19:07 | 57.66910 | 12.28898 | 512 ft | 11 kts | 24° |
| 2026-04-26 19:08 | 57.66981 | 12.28961 | 513 ft | 11 kts | 26° |
| 2026-04-26 19:08 | 57.67037 | 12.29048 | 513 ft | 10 kts | 73° |
| 2026-04-26 19:08 | 57.67017 | 12.29172 | 515 ft | 10 kts | 116° |
| 2026-04-26 19:08 | 57.66988 | 12.29285 | 515 ft | 9 kts | 116° |
| 2026-04-26 19:09 | 57.66942 | 12.29318 | 515 ft | 7 kts | 201° |
| 2026-04-26 19:09 | 57.66912 | 12.29332 | 515 ft | 5 kts | 126° |
| 2026-04-26 19:09 | 57.66897 | 12.29385 | 515 ft | 4 kts | 115° |
| 2026-04-26 19:09 | 57.66890 | 12.29412 | 515 ft | 1 kts | 116° |
| 2026-04-26 19:10 | 57.66888 | 12.29421 | 515 ft | 0 kts | 116° |